Colborne, Canada
Current Conditions -  °F | °C
As of 9:00 PM on Wednesday 22 Oct 2014 (Local Time) from CYTR Reporting Station
Few Clouds Few Clouds  
Wind Chill: 42°   Ceiling: Unl
Heat Index: 46°   Visibility: 15mi
Dew Point: 45°   Wind: 8mph
Humidity: 93%   Direction: 350°N
Pressure: 30.21"   Gusts: NA
Location:  44.02°N, 77.88°W
Report Text: CYTR 230100Z 35007KT 15SM FEW059 08/07 A3021 RMK SC2 SLP235
Loading
Personal Weather Stations






























Interactive Weather Map
Tropical Storm Tracking
New forecast layout! Learn more

10-Day Weather Forecast

Advertisements
Track Severe Weather on mobile